createdAt,value
2017-05-27T00:00:20.000Z,0
2017-05-27T00:01:19.908Z,0
2017-05-27T00:02:20.536Z,0
2017-05-27T00:03:19.977Z,0
2017-05-27T00:04:20.251Z,0
2017-05-27T00:05:19.633Z,0
2017-05-27T00:06:20.013Z,0
2017-05-27T00:07:19.708Z,0
2017-05-27T00:08:20.280Z,0
2017-05-27T00:09:20.348Z,0
2017-05-27T00:10:19.992Z,0
2017-05-27T00:11:20.044Z,0
2017-05-27T00:12:20.433Z,0
2017-05-27T00:13:20.066Z,0
2017-05-27T00:14:20.327Z,0
2017-05-27T00:15:20.346Z,0
2017-05-27T00:16:20.047Z,0
2017-05-27T00:17:20.729Z,0
2017-05-27T00:18:20.072Z,0
2017-05-27T00:19:20.079Z,0
2017-05-27T00:20:19.825Z,0
2017-05-27T00:21:20.400Z,0
2017-05-27T00:22:19.833Z,0
2017-05-27T00:23:21.023Z,0
2017-05-27T00:24:20.430Z,0
2017-05-27T00:25:20.439Z,0
2017-05-27T00:26:20.138Z,0
2017-05-27T00:27:20.513Z,0
2017-05-27T00:28:19.844Z,0
2017-05-27T00:29:19.913Z,0
2017-05-27T00:30:20.177Z,0
2017-05-27T00:31:20.500Z,0
2017-05-27T00:32:20.554Z,0
2017-05-27T00:33:20.218Z,0
2017-05-27T00:34:20.207Z,0
2017-05-27T00:35:20.528Z,0
2017-05-27T00:36:20.283Z,0
2017-05-27T00:37:20.550Z,0
2017-05-27T00:38:20.302Z,0
2017-05-27T00:39:20.578Z,0
2017-05-27T00:40:20.029Z,0
2017-05-27T00:41:20.585Z,0
2017-05-27T00:42:20.697Z,0
2017-05-27T00:43:20.293Z,0
2017-05-27T00:44:19.991Z,0
2017-05-27T00:45:20.672Z,0
2017-05-27T00:46:19.700Z,0
2017-05-27T00:47:20.064Z,0
2017-05-27T00:48:20.031Z,0
2017-05-27T00:49:20.083Z,0
2017-05-27T00:50:20.665Z,0
2017-05-27T00:51:20.365Z,0
2017-05-27T00:52:20.380Z,0
2017-05-27T00:53:20.073Z,0
2017-05-27T00:54:20.763Z,0
2017-05-27T00:55:20.404Z,0
2017-05-27T00:56:20.726Z,0
2017-05-27T00:57:20.210Z,0
2017-05-27T00:58:20.118Z,0
2017-05-27T00:59:20.433Z,0
2017-05-27T01:00:20.495Z,0
2017-05-27T01:01:20.191Z,0
2017-05-27T01:02:20.830Z,0
2017-05-27T01:03:20.835Z,0
2017-05-27T01:04:20.535Z,0
2017-05-27T01:05:20.794Z,0
2017-05-27T01:06:20.549Z,0
2017-05-27T01:07:20.882Z,0
2017-05-27T01:08:20.571Z,0
2017-05-27T01:09:20.573Z,0
2017-05-27T01:10:20.901Z,0
2017-05-27T01:11:20.611Z,0
2017-05-27T01:12:20.864Z,0
2017-05-27T01:13:20.570Z,0
2017-05-27T01:14:20.318Z,0
2017-05-27T01:15:20.062Z,0
2017-05-27T01:16:20.639Z,0
2017-05-27T01:17:20.603Z,0
2017-05-27T01:18:20.401Z,0
2017-05-27T01:19:20.673Z,0
2017-05-27T01:20:20.689Z,0
2017-05-27T01:21:20.999Z,0
2017-05-27T01:22:20.326Z,0
2017-05-27T01:23:20.719Z,0
2017-05-27T01:24:20.404Z,0
2017-05-27T01:25:20.363Z,0
2017-05-27T01:26:20.686Z,0
2017-05-27T01:27:20.126Z,0
2017-05-27T01:28:20.814Z,0
2017-05-27T01:29:21.023Z,0
2017-05-27T01:30:21.031Z,0
2017-05-27T01:31:21.092Z,0
2017-05-27T01:32:20.116Z,0
2017-05-27T01:33:20.853Z,0
2017-05-27T01:34:21.078Z,0
2017-05-27T01:35:21.236Z,0
2017-05-27T01:36:20.570Z,0
2017-05-27T01:37:21.093Z,0
2017-05-27T01:38:20.584Z,0
2017-05-27T01:39:20.810Z,0
2017-05-27T01:40:21.123Z,0
2017-05-27T01:41:20.201Z,0
2017-05-27T01:42:20.579Z,0
2017-05-27T01:43:20.213Z,0
2017-05-27T01:44:20.539Z,0
2017-05-27T01:45:20.594Z,0
2017-05-27T01:46:21.176Z,0
2017-05-27T01:47:20.877Z,0
2017-05-27T01:48:20.624Z,0
2017-05-27T01:49:20.893Z,0
2017-05-27T01:50:21.265Z,0
2017-05-27T01:51:20.906Z,0
2017-05-27T01:52:20.919Z,0
2017-05-27T01:53:20.315Z,0
2017-05-27T01:54:20.630Z,0
2017-05-27T01:55:20.634Z,0
2017-05-27T01:56:20.955Z,0
2017-05-27T01:57:21.271Z,0
2017-05-27T01:58:20.707Z,0
2017-05-27T01:59:20.985Z,0
2017-05-27T02:00:20.995Z,0
2017-05-27T02:01:20.688Z,0
2017-05-27T02:02:21.012Z,0
2017-05-27T02:03:21.329Z,0
2017-05-27T02:04:21.391Z,0
2017-05-27T02:05:21.349Z,0
2017-05-27T02:06:21.046Z,0
2017-05-27T02:07:20.437Z,0
2017-05-27T02:08:21.067Z,0
2017-05-27T02:09:20.606Z,0
2017-05-27T02:10:21.441Z,0
2017-05-27T02:11:21.453Z,0
2017-05-27T02:12:21.099Z,0
2017-05-27T02:13:21.157Z,0
2017-05-27T02:14:21.117Z,0
2017-05-27T02:15:21.493Z,0
2017-05-27T02:16:20.872Z,0
2017-05-27T02:17:21.455Z,0
2017-05-27T02:18:21.462Z,0
2017-05-27T02:19:20.592Z,0
2017-05-27T02:20:20.559Z,0
2017-05-27T02:21:21.186Z,0
2017-05-27T02:22:21.501Z,0
2017-05-27T02:23:20.944Z,0
2017-05-27T02:24:21.256Z,0
2017-05-27T02:25:21.217Z,0
2017-05-27T02:26:21.232Z,0
2017-05-27T02:27:21.554Z,0
2017-05-27T02:28:21.246Z,0
2017-05-27T02:29:21.567Z,0
2017-05-27T02:30:21.005Z,0
2017-05-27T02:31:21.320Z,0
2017-05-27T02:32:20.658Z,0
2017-05-27T02:33:21.390Z,0
2017-05-27T02:34:20.732Z,0
2017-05-27T02:35:21.364Z,0
2017-05-27T02:36:21.372Z,0
2017-05-27T02:37:21.016Z,0
2017-05-27T02:38:21.078Z,0
2017-05-27T02:39:21.396Z,0
2017-05-27T02:40:21.406Z,0
2017-05-27T02:41:21.673Z,0
2017-05-27T02:42:21.368Z,0
2017-05-27T02:43:20.805Z,0
2017-05-27T02:44:21.077Z,0
2017-05-27T02:45:21.394Z,0
2017-05-27T02:46:21.459Z,0
2017-05-27T02:47:21.158Z,0
2017-05-27T02:48:21.475Z,0
2017-05-27T02:49:21.441Z,0
2017-05-27T02:50:21.753Z,0
2017-05-27T02:51:21.456Z,0
2017-05-27T02:52:21.201Z,0
2017-05-27T02:53:21.780Z,0
2017-05-27T02:54:21.531Z,0
2017-05-27T02:55:21.540Z,0
2017-05-27T02:56:21.498Z,0
2017-05-27T02:57:21.507Z,0
2017-05-27T02:58:21.517Z,0
2017-05-27T02:59:21.581Z,0
2017-05-27T03:00:21.274Z,0
2017-05-27T03:01:21.238Z,0
2017-05-27T03:02:21.869Z,0
2017-05-27T03:03:22.036Z,0
2017-05-27T03:04:21.270Z,0
2017-05-27T03:05:21.684Z,0
2017-05-27T03:06:21.908Z,0
2017-05-27T03:07:21.650Z,0
2017-05-27T03:08:21.973Z,0
2017-05-27T03:09:21.669Z,0
2017-05-27T03:10:21.997Z,0
2017-05-27T03:11:21.949Z,0
2017-05-27T03:12:22.303Z,0
2017-05-27T03:13:22.023Z,0
2017-05-27T03:14:21.970Z,0
2017-05-27T03:15:36.553Z,0
2017-05-27T03:16:21.368Z,0
2017-05-27T03:17:21.115Z,0
2017-05-27T03:18:21.391Z,0
2017-05-27T03:19:21.721Z,0
2017-05-27T03:20:21.404Z,0
2017-05-27T03:21:21.738Z,0
2017-05-27T03:22:21.789Z,0
2017-05-27T03:23:21.793Z,0
2017-05-27T03:24:21.457Z,0
2017-05-27T03:25:21.815Z,0
2017-05-27T03:26:21.775Z,0
2017-05-27T03:27:22.106Z,0
2017-05-27T03:28:21.887Z,0
2017-05-27T03:29:21.801Z,0
2017-05-27T03:30:21.809Z,0
2017-05-27T03:31:22.184Z,0
2017-05-27T03:32:21.827Z,0
2017-05-27T03:33:21.527Z,0
2017-05-27T03:34:21.953Z,0
2017-05-27T03:35:21.545Z,0
2017-05-27T03:36:21.549Z,5
2017-05-27T03:37:21.557Z,5
2017-05-27T03:38:21.568Z,5
2017-05-27T03:39:22.203Z,5
2017-05-27T03:40:21.901Z,5
2017-05-27T03:41:22.272Z,5
2017-05-27T03:42:22.236Z,5
2017-05-27T03:43:21.929Z,5
2017-05-27T03:44:21.316Z,5
2017-05-27T03:45:21.633Z,5
2017-05-27T03:46:21.641Z,5
2017-05-27T03:47:22.271Z,5
2017-05-27T03:48:22.290Z,5
2017-05-27T03:49:22.359Z,5
2017-05-27T03:50:22.312Z,5
2017-05-27T03:51:22.023Z,5
2017-05-27T03:52:22.016Z,10
2017-05-27T03:53:22.032Z,10
2017-05-27T03:54:22.040Z,10
2017-05-27T03:55:22.043Z,10
2017-05-27T03:56:22.347Z,10
2017-05-27T03:57:22.061Z,10
2017-05-27T03:58:22.378Z,10
2017-05-27T03:59:22.080Z,10
2017-05-27T04:00:21.769Z,10
2017-05-27T04:01:22.089Z,10
2017-05-27T04:02:22.141Z,10
2017-05-27T04:03:21.843Z,10
2017-05-27T04:04:22.173Z,10
2017-05-27T04:05:21.809Z,15
2017-05-27T04:06:22.139Z,15
2017-05-27T04:07:22.204Z,15
2017-05-27T04:08:22.158Z,15
2017-05-27T04:09:22.468Z,15
2017-05-27T04:10:22.528Z,15
2017-05-27T04:11:22.486Z,15
2017-05-27T04:12:22.501Z,15
2017-05-27T04:13:22.513Z,15
2017-05-27T04:14:21.945Z,15
2017-05-27T04:15:22.258Z,15
2017-05-27T04:16:22.270Z,15
2017-05-27T04:17:22.543Z,20
2017-05-27T04:18:22.236Z,20
2017-05-27T04:19:22.007Z,20
2017-05-27T04:20:22.365Z,25
2017-05-27T04:21:22.316Z,30
2017-05-27T04:22:22.277Z,25
2017-05-27T04:23:22.293Z,30
2017-05-27T04:24:22.298Z,25
2017-05-27T04:25:22.301Z,20
2017-05-27T04:26:22.358Z,20
2017-05-27T04:27:22.323Z,25
2017-05-27T04:28:22.689Z,25
2017-05-27T04:29:22.340Z,25
2017-05-27T04:30:22.352Z,25
2017-05-27T04:31:22.420Z,25
2017-05-27T04:32:22.719Z,30
2017-05-27T04:33:22.390Z,30
2017-05-27T04:34:22.439Z,30
2017-05-27T04:35:22.493Z,30
2017-05-27T04:36:21.777Z,35
2017-05-27T04:37:22.719Z,35
2017-05-27T04:38:22.729Z,35
2017-05-27T04:39:22.799Z,35
2017-05-27T04:40:22.486Z,40
2017-05-27T04:41:22.447Z,50
2017-05-27T04:42:22.157Z,50
2017-05-27T04:43:22.166Z,60
2017-05-27T04:44:22.791Z,55
2017-05-27T04:45:22.536Z,45
2017-05-27T04:46:22.921Z,50
2017-05-27T04:47:22.868Z,55
2017-05-27T04:48:22.510Z,85
2017-05-27T04:49:22.521Z,105
2017-05-27T04:50:22.223Z,195
2017-05-27T04:51:22.548Z,260
2017-05-27T04:52:22.860Z,280
2017-05-27T04:53:22.306Z,285
2017-05-27T04:54:22.887Z,295
2017-05-27T04:55:22.267Z,295
2017-05-27T04:56:22.950Z,285
2017-05-27T04:57:22.926Z,295
2017-05-27T04:58:22.304Z,315
2017-05-27T04:59:22.061Z,330
2017-05-27T05:00:22.372Z,340
2017-05-27T05:01:22.332Z,345
2017-05-27T05:02:22.344Z,340
2017-05-27T05:03:22.723Z,335
2017-05-27T05:04:22.371Z,360
2017-05-27T05:05:22.375Z,380
2017-05-27T05:06:22.088Z,390
2017-05-27T05:07:23.080Z,395
2017-05-27T05:08:22.789Z,400
2017-05-27T05:09:22.835Z,405
2017-05-27T05:10:22.477Z,415
2017-05-27T05:11:23.063Z,420
2017-05-27T05:12:22.816Z,420
2017-05-27T05:13:22.470Z,425
2017-05-27T05:14:22.791Z,435
2017-05-27T05:15:22.485Z,435
2017-05-27T05:16:22.184Z,445
2017-05-27T05:17:22.198Z,455
2017-05-27T05:18:22.829Z,460
2017-05-27T05:19:22.845Z,470
2017-05-27T05:20:22.912Z,465
2017-05-27T05:21:22.864Z,470
2017-05-27T05:22:22.560Z,475
2017-05-27T05:23:23.201Z,480
2017-05-27T05:24:22.586Z,490
2017-05-27T05:25:22.912Z,485
2017-05-27T05:26:22.920Z,465
2017-05-27T05:27:22.932Z,450
2017-05-27T05:28:22.324Z,470
2017-05-27T05:29:22.952Z,490
2017-05-27T05:30:23.013Z,490
2017-05-27T05:31:23.390Z,495
2017-05-27T05:32:22.674Z,495
2017-05-27T05:33:22.687Z,495
2017-05-27T05:34:23.061Z,480
2017-05-27T05:35:23.338Z,485
2017-05-27T05:36:23.084Z,540
2017-05-27T05:37:23.048Z,560
2017-05-27T05:38:23.366Z,560
2017-05-27T05:39:22.760Z,565
2017-05-27T05:40:22.829Z,570
2017-05-27T05:41:22.835Z,560
2017-05-27T05:42:22.848Z,555
2017-05-27T05:43:23.113Z,550
2017-05-27T05:44:23.541Z,530
2017-05-27T05:45:22.825Z,530
2017-05-27T05:46:22.853Z,560
2017-05-27T05:47:22.849Z,590
2017-05-27T05:48:23.555Z,590
2017-05-27T05:49:23.567Z,585
2017-05-27T05:50:23.524Z,585
2017-05-27T05:51:23.216Z,605
2017-05-27T05:52:23.278Z,630
2017-05-27T05:53:22.609Z,635
2017-05-27T05:54:22.624Z,635
2017-05-27T05:55:22.947Z,635
2017-05-27T05:56:23.699Z,590
2017-05-27T05:57:23.601Z,570
2017-05-27T05:58:23.302Z,595
2017-05-27T05:59:23.309Z,635
2017-05-27T06:00:23.634Z,670
2017-05-27T06:01:23.023Z,675
2017-05-27T06:02:23.344Z,660
2017-05-27T06:03:23.986Z,670
2017-05-27T06:04:23.736Z,655
2017-05-27T06:05:23.078Z,630
2017-05-27T06:06:23.761Z,675
2017-05-27T06:07:23.764Z,735
2017-05-27T06:08:23.768Z,765
2017-05-27T06:09:23.756Z,745
2017-05-27T06:10:23.185Z,690
2017-05-27T06:11:23.145Z,675
2017-05-27T06:12:23.474Z,695
2017-05-27T06:13:23.775Z,700
2017-05-27T06:14:23.813Z,715
2017-05-27T06:15:22.929Z,730
2017-05-27T06:16:23.510Z,775
2017-05-27T06:17:22.912Z,780
2017-05-27T06:18:23.594Z,760
2017-05-27T06:19:23.626Z,770
2017-05-27T06:20:23.305Z,790
2017-05-27T06:21:23.314Z,790
2017-05-27T06:22:23.591Z,800
2017-05-27T06:23:23.604Z,790
2017-05-27T06:24:23.621Z,755
2017-05-27T06:25:23.322Z,720
2017-05-27T06:26:24.025Z,720
2017-05-27T06:27:23.969Z,710
2017-05-27T06:28:23.987Z,685
2017-05-27T06:29:23.995Z,700
2017-05-27T06:30:23.705Z,740
2017-05-27T06:31:23.713Z,780
2017-05-27T06:32:23.459Z,795
2017-05-27T06:33:23.161Z,815
2017-05-27T06:34:23.748Z,825
2017-05-27T06:35:24.071Z,830
2017-05-27T06:36:23.770Z,825
2017-05-27T06:37:24.097Z,800
2017-05-27T06:38:23.803Z,795
2017-05-27T06:39:23.819Z,830
2017-05-27T06:40:23.261Z,855
2017-05-27T06:41:23.841Z,860
2017-05-27T06:42:23.852Z,850
2017-05-27T06:43:23.866Z,855
2017-05-27T06:44:24.214Z,865
2017-05-27T06:45:24.205Z,870
2017-05-27T06:46:24.215Z,885
2017-05-27T06:47:23.982Z,895
2017-05-27T06:48:24.246Z,910
2017-05-27T06:49:24.047Z,915
2017-05-27T06:50:23.643Z,875
2017-05-27T06:51:23.661Z,840
2017-05-27T06:52:24.304Z,890
2017-05-27T06:53:24.007Z,935
2017-05-27T06:54:23.703Z,945
2017-05-27T06:55:23.767Z,915
2017-05-27T06:56:23.775Z,885
2017-05-27T06:57:24.106Z,870
2017-05-27T06:58:24.071Z,900
2017-05-27T06:59:24.133Z,930
2017-05-27T07:00:24.145Z,910
2017-05-27T07:01:23.796Z,930
2017-05-27T07:02:24.578Z,950
2017-05-27T07:03:24.449Z,980
2017-05-27T07:04:24.457Z,990
2017-05-27T07:05:24.475Z,990
2017-05-27T07:06:24.229Z,980
2017-05-27T07:07:24.189Z,990
2017-05-27T07:08:23.901Z,995
2017-05-27T07:09:23.909Z,1005
2017-05-27T07:10:24.601Z,990
2017-05-27T07:11:24.298Z,995
2017-05-27T07:12:24.581Z,1005
2017-05-27T07:13:23.962Z,985
2017-05-27T07:14:24.609Z,1010
2017-05-27T07:15:24.660Z,1055
2017-05-27T07:16:24.367Z,1030
2017-05-27T07:17:24.080Z,985
2017-05-27T07:18:24.394Z,985
2017-05-27T07:19:24.054Z,1005
2017-05-27T07:20:23.773Z,1010
2017-05-27T07:21:24.801Z,1015
2017-05-27T07:22:24.410Z,1070
2017-05-27T07:23:24.462Z,1085
2017-05-27T07:24:24.429Z,1090
2017-05-27T07:25:24.444Z,1090
2017-05-27T07:26:24.829Z,1105
2017-05-27T07:27:24.588Z,1095
2017-05-27T07:28:24.814Z,1085
2017-05-27T07:29:23.929Z,1090
2017-05-27T07:30:24.203Z,1100
2017-05-27T07:31:24.526Z,1100
2017-05-27T07:32:24.545Z,980
2017-05-27T07:33:24.303Z,590
2017-05-27T07:34:23.994Z,205
2017-05-27T07:35:24.271Z,100
2017-05-27T07:36:24.339Z,90
2017-05-27T07:37:24.612Z,80
2017-05-27T07:38:24.052Z,70
2017-05-27T07:39:24.330Z,60
2017-05-27T07:40:25.272Z,55
2017-05-27T07:41:23.744Z,55
2017-05-27T07:42:24.682Z,50
2017-05-27T07:43:24.763Z,50
2017-05-27T07:44:25.028Z,50
2017-05-27T07:45:24.728Z,50
2017-05-27T07:46:24.737Z,50
2017-05-27T07:47:25.056Z,50
2017-05-27T07:48:24.760Z,50
2017-05-27T07:49:24.777Z,50
2017-05-27T07:50:24.473Z,50
2017-05-27T07:51:25.091Z,50
2017-05-27T07:52:24.482Z,55
2017-05-27T07:53:24.501Z,55
2017-05-27T07:54:24.830Z,60
2017-05-27T07:55:24.227Z,65
2017-05-27T07:56:24.846Z,65
2017-05-27T07:57:24.854Z,70
2017-05-27T07:58:24.860Z,70
2017-05-27T07:59:25.287Z,70
2017-05-27T08:00:25.190Z,70
2017-05-27T08:01:25.200Z,70
2017-05-27T08:02:24.908Z,70
2017-05-27T08:03:25.281Z,70
2017-05-27T08:04:24.617Z,70
2017-05-27T08:05:25.246Z,65
2017-05-27T08:06:25.308Z,65
2017-05-27T08:07:25.003Z,65
2017-05-27T08:08:25.275Z,65
2017-05-27T08:09:25.337Z,65
2017-05-27T08:10:25.353Z,65
2017-05-27T08:11:24.997Z,60
2017-05-27T08:12:25.001Z,60
2017-05-27T08:13:24.766Z,60
2017-05-27T08:14:24.719Z,60
2017-05-27T08:15:25.366Z,60
2017-05-27T08:16:25.046Z,60
2017-05-27T08:17:25.381Z,60
2017-05-27T08:18:25.684Z,60
2017-05-27T08:19:24.933Z,60
2017-05-27T08:20:25.094Z,60
2017-05-27T08:21:25.095Z,55
2017-05-27T08:22:25.168Z,55
2017-05-27T08:23:25.169Z,55
2017-05-27T08:24:25.557Z,55
2017-05-27T08:25:25.173Z,50
2017-05-27T08:26:25.203Z,50
2017-05-27T08:27:25.160Z,50
2017-05-27T08:28:25.172Z,50
2017-05-27T08:29:25.230Z,50
2017-05-27T08:30:25.186Z,55
2017-05-27T08:31:25.200Z,55
2017-05-27T08:32:24.916Z,55
2017-05-27T08:33:25.225Z,55
2017-05-27T08:34:24.973Z,55
2017-05-27T08:35:25.297Z,50
2017-05-27T08:36:25.401Z,50
2017-05-27T08:37:25.574Z,55
2017-05-27T08:38:24.650Z,55
2017-05-27T08:39:25.661Z,55
2017-05-27T08:40:25.044Z,55
2017-05-27T08:41:25.302Z,55
2017-05-27T08:42:25.725Z,55
2017-05-27T08:43:25.007Z,55
2017-05-27T08:44:25.656Z,60
2017-05-27T08:45:25.349Z,60
2017-05-27T08:46:25.352Z,60
2017-05-27T08:47:25.676Z,60
2017-05-27T08:48:25.697Z,65
2017-05-27T08:49:25.381Z,65
2017-05-27T08:50:25.126Z,65
2017-05-27T08:51:25.139Z,65
2017-05-27T08:52:25.482Z,65
2017-05-27T08:53:25.173Z,65
2017-05-27T08:54:25.451Z,65
2017-05-27T08:55:25.443Z,65
2017-05-27T08:56:25.452Z,65
2017-05-27T08:57:25.773Z,65
2017-05-27T08:58:25.786Z,65
2017-05-27T08:59:25.844Z,65
2017-05-27T09:00:25.814Z,65
2017-05-27T09:01:24.892Z,65
2017-05-27T09:02:25.925Z,65
2017-05-27T09:03:25.526Z,65
2017-05-27T09:04:25.533Z,65
2017-05-27T09:05:25.025Z,65
2017-05-27T09:06:25.556Z,65
2017-05-27T09:07:25.875Z,65
2017-05-27T09:08:25.942Z,65
2017-05-27T09:09:25.903Z,65
2017-05-27T09:10:25.593Z,65
2017-05-27T09:11:25.968Z,65
2017-05-27T09:12:25.922Z,65
2017-05-27T09:13:25.988Z,65
2017-05-27T09:14:25.944Z,65
2017-05-27T09:15:26.013Z,65
2017-05-27T09:16:25.655Z,65
2017-05-27T09:17:25.663Z,65
2017-05-27T09:18:25.674Z,65
2017-05-27T09:19:26.051Z,65
2017-05-27T09:20:26.006Z,65
2017-05-27T09:21:26.014Z,65
2017-05-27T09:22:25.402Z,65
2017-05-27T09:23:26.033Z,65
2017-05-27T09:24:25.733Z,65
2017-05-27T09:25:25.796Z,65
2017-05-27T09:26:25.805Z,65
2017-05-27T09:27:26.126Z,65
2017-05-27T09:28:26.114Z,65
2017-05-27T09:29:25.843Z,65
2017-05-27T09:30:26.155Z,65
2017-05-27T09:31:25.540Z,65
2017-05-27T09:32:25.808Z,65
2017-05-27T09:33:26.137Z,65
2017-05-27T09:34:25.830Z,65
2017-05-27T09:35:25.845Z,65
2017-05-27T09:36:25.861Z,65
2017-05-27T09:37:25.868Z,65
2017-05-27T09:38:25.925Z,65
2017-05-27T09:39:25.900Z,65
2017-05-27T09:40:25.899Z,65
2017-05-27T09:41:25.591Z,65
2017-05-27T09:42:25.907Z,65
2017-05-27T09:43:26.236Z,65
2017-05-27T09:44:25.991Z,65
2017-05-27T09:45:26.303Z,65
2017-05-27T09:46:26.611Z,65
2017-05-27T09:47:26.008Z,65
2017-05-27T09:48:26.335Z,65
2017-05-27T09:49:26.036Z,65
2017-05-27T09:50:25.686Z,65
2017-05-27T09:51:26.314Z,65
2017-05-27T09:52:26.427Z,65
2017-05-27T09:53:26.379Z,65
2017-05-27T09:54:25.457Z,60
2017-05-27T09:55:25.470Z,60
2017-05-27T09:56:25.426Z,60
2017-05-27T09:57:25.516Z,60
2017-05-27T09:58:25.772Z,60
2017-05-27T09:59:26.086Z,60
2017-05-27T10:00:25.477Z,60
2017-05-27T10:01:25.165Z,60
2017-05-27T10:02:25.556Z,60
2017-05-27T10:03:25.502Z,60
2017-05-27T10:04:25.509Z,60
2017-05-27T10:05:25.262Z,60
2017-05-27T10:06:25.903Z,60
2017-05-27T10:07:25.230Z,60
2017-05-27T10:08:25.237Z,60
2017-05-27T10:09:25.875Z,60
2017-05-27T10:10:26.507Z,60
2017-05-27T10:11:26.564Z,60
2017-05-27T10:12:25.904Z,60
2017-05-27T10:13:26.590Z,60
2017-05-27T10:14:26.546Z,60
2017-05-27T10:15:26.250Z,60
2017-05-27T10:16:26.561Z,60
2017-05-27T10:17:26.626Z,60
2017-05-27T10:18:26.635Z,60
2017-05-27T10:19:26.037Z,60
2017-05-27T10:20:26.348Z,60
2017-05-27T10:21:26.325Z,60
2017-05-27T10:22:26.679Z,60
2017-05-27T10:23:26.429Z,60
2017-05-27T10:24:26.337Z,60
2017-05-27T10:25:26.038Z,60
2017-05-27T10:26:26.457Z,60
2017-05-27T10:27:26.365Z,60
2017-05-27T10:28:26.689Z,60
2017-05-27T10:29:26.383Z,60
2017-05-27T10:30:26.767Z,60
2017-05-27T10:31:26.467Z,60
2017-05-27T10:32:26.161Z,60
2017-05-27T10:33:26.440Z,60
2017-05-27T10:34:26.275Z,60
2017-05-27T10:35:26.758Z,60
2017-05-27T10:36:26.570Z,60
2017-05-27T10:37:26.828Z,60
2017-05-27T10:38:26.790Z,60
2017-05-27T10:39:26.795Z,60
2017-05-27T10:40:26.807Z,55
2017-05-27T10:41:26.829Z,55
2017-05-27T10:42:26.518Z,55
2017-05-27T10:43:26.580Z,55
2017-05-27T10:44:26.333Z,55
2017-05-27T10:45:26.908Z,55
2017-05-27T10:46:26.553Z,55
2017-05-27T10:47:26.565Z,55
2017-05-27T10:48:26.877Z,55
2017-05-27T10:49:26.321Z,55
2017-05-27T10:50:26.908Z,55
2017-05-27T10:51:26.915Z,55
2017-05-27T10:52:26.976Z,55
2017-05-27T10:53:26.940Z,55
2017-05-27T10:54:26.426Z,55
2017-05-27T10:55:26.389Z,55
2017-05-27T10:56:26.088Z,55
2017-05-27T10:57:26.984Z,55
2017-05-27T10:58:26.678Z,55
2017-05-27T10:59:26.785Z,55
2017-05-27T11:00:26.750Z,55
2017-05-27T11:01:26.703Z,55
2017-05-27T11:02:26.408Z,55
2017-05-27T11:03:26.419Z,55
2017-05-27T11:04:27.048Z,55
2017-05-27T11:05:26.796Z,55
2017-05-27T11:06:26.751Z,55
2017-05-27T11:07:26.848Z,55
2017-05-27T11:08:27.134Z,55
2017-05-27T11:09:26.782Z,55
2017-05-27T11:10:26.792Z,55
2017-05-27T11:11:26.497Z,55
2017-05-27T11:12:26.505Z,55
2017-05-27T11:13:26.508Z,55
2017-05-27T11:14:26.836Z,55
2017-05-27T11:15:26.842Z,55
2017-05-27T11:16:26.592Z,55
2017-05-27T11:17:26.918Z,55
2017-05-27T11:18:26.561Z,55
2017-05-27T11:19:26.577Z,50
2017-05-27T11:20:26.270Z,50
2017-05-27T11:21:26.900Z,50
2017-05-27T11:22:26.915Z,50
2017-05-27T11:23:26.612Z,50
2017-05-27T11:24:26.314Z,50
2017-05-27T11:25:27.005Z,50
2017-05-27T11:26:26.391Z,50
2017-05-27T11:27:26.973Z,50
2017-05-27T11:28:27.026Z,50
2017-05-27T11:29:26.980Z,50
2017-05-27T11:30:26.993Z,50
2017-05-27T11:31:26.696Z,50
2017-05-27T11:32:27.014Z,50
2017-05-27T11:33:27.022Z,50
2017-05-27T11:34:26.103Z,50
2017-05-27T11:35:27.405Z,50
2017-05-27T11:36:27.369Z,50
2017-05-27T11:37:26.757Z,50
2017-05-27T11:38:27.390Z,50
2017-05-27T11:39:26.466Z,50
2017-05-27T11:40:27.098Z,50
2017-05-27T11:41:27.108Z,50
2017-05-27T11:42:27.120Z,50
2017-05-27T11:43:27.123Z,50
2017-05-27T11:44:27.138Z,50
2017-05-27T11:45:27.465Z,50
2017-05-27T11:46:27.208Z,50
2017-05-27T11:47:27.539Z,50
2017-05-27T11:48:27.580Z,50
2017-05-27T11:49:27.187Z,45
2017-05-27T11:50:27.210Z,45
2017-05-27T11:51:27.205Z,45
2017-05-27T11:52:27.527Z,45
2017-05-27T11:53:27.594Z,45
2017-05-27T11:54:27.543Z,45
2017-05-27T11:55:27.249Z,45
2017-05-27T11:56:27.568Z,45
2017-05-27T11:57:27.006Z,45
2017-05-27T11:58:26.962Z,45
2017-05-27T11:59:27.591Z,45
2017-05-27T12:00:27.700Z,45
2017-05-27T12:01:27.616Z,45
2017-05-27T12:02:27.626Z,45
2017-05-27T12:03:27.951Z,45
2017-05-27T12:04:27.018Z,45
2017-05-27T12:05:27.704Z,45
2017-05-27T12:06:27.661Z,45
2017-05-27T12:07:27.377Z,45
2017-05-27T12:08:27.421Z,45
2017-05-27T12:09:26.759Z,45
2017-05-27T12:10:27.703Z,45
2017-05-27T12:11:27.450Z,40
2017-05-27T12:12:27.772Z,40
2017-05-27T12:13:26.847Z,40
2017-05-27T12:14:27.482Z,40
2017-05-27T12:15:27.445Z,40
2017-05-27T12:16:27.815Z,40
2017-05-27T12:17:27.514Z,40
2017-05-27T12:18:27.781Z,40
2017-05-27T12:19:27.851Z,40
2017-05-27T12:20:27.545Z,40
2017-05-27T12:21:27.815Z,40
2017-05-27T12:22:27.524Z,40
2017-05-27T12:23:27.573Z,40
2017-05-27T12:24:27.580Z,40
2017-05-27T12:25:27.233Z,40
2017-05-27T12:26:27.916Z,40
2017-05-27T12:27:27.626Z,40
2017-05-27T12:28:27.619Z,40
2017-05-27T12:29:27.579Z,40
2017-05-27T12:30:27.905Z,40
2017-05-27T12:31:27.977Z,40
2017-05-27T12:32:27.630Z,40
2017-05-27T12:33:26.690Z,40
2017-05-27T12:34:27.380Z,40
2017-05-27T12:35:28.019Z,40
2017-05-27T12:36:27.984Z,35
2017-05-27T12:37:28.026Z,35
2017-05-27T12:38:28.033Z,35
2017-05-27T12:39:27.707Z,35
2017-05-27T12:40:27.741Z,35
2017-05-27T12:41:27.446Z,35
2017-05-27T12:42:27.763Z,35
2017-05-27T12:43:27.726Z,35
2017-05-27T12:44:27.473Z,35
2017-05-27T12:45:28.119Z,35
2017-05-27T12:46:28.154Z,35
2017-05-27T12:47:27.759Z,35
2017-05-27T12:48:27.464Z,35
2017-05-27T12:49:28.101Z,35
2017-05-27T12:50:27.483Z,35
2017-05-27T12:51:28.122Z,35
2017-05-27T12:52:28.167Z,35
2017-05-27T12:53:28.142Z,35
2017-05-27T12:54:27.889Z,35
2017-05-27T12:55:27.847Z,30
2017-05-27T12:56:27.862Z,30
2017-05-27T12:57:28.334Z,30
2017-05-27T12:58:26.951Z,30
2017-05-27T12:59:27.328Z,30
2017-05-27T13:00:26.973Z,30
2017-05-27T13:01:27.333Z,30
2017-05-27T13:02:27.974Z,30
2017-05-27T13:03:28.248Z,30
2017-05-27T13:04:28.292Z,30
2017-05-27T13:05:28.257Z,30
2017-05-27T13:06:28.324Z,30
2017-05-27T13:07:27.704Z,30
2017-05-27T13:08:27.684Z,30
2017-05-27T13:09:28.008Z,30
2017-05-27T13:10:28.046Z,30
2017-05-27T13:11:28.322Z,30
2017-05-27T13:12:28.328Z,30
2017-05-27T13:13:28.387Z,30
2017-05-27T13:14:27.724Z,30
2017-05-27T13:15:28.108Z,30
2017-05-27T13:16:27.484Z,30
2017-05-27T13:17:28.130Z,30
2017-05-27T13:18:28.190Z,30
2017-05-27T13:19:28.090Z,30
2017-05-27T13:20:28.412Z,30
2017-05-27T13:21:28.418Z,30
2017-05-27T13:22:27.805Z,30
2017-05-27T13:23:28.131Z,30
2017-05-27T13:24:28.139Z,30
2017-05-27T13:25:27.888Z,30
2017-05-27T13:26:27.852Z,30
2017-05-27T13:27:27.546Z,30
2017-05-27T13:28:28.226Z,30
2017-05-27T13:29:28.502Z,30
2017-05-27T13:30:27.892Z,30
2017-05-27T13:31:28.313Z,30
2017-05-27T13:32:28.530Z,30
2017-05-27T13:33:28.643Z,30
2017-05-27T13:34:27.978Z,30
2017-05-27T13:35:28.248Z,30
2017-05-27T13:36:27.999Z,30
2017-05-27T13:37:28.951Z,30
2017-05-27T13:38:28.602Z,30
2017-05-27T13:39:28.662Z,30
2017-05-27T13:40:27.938Z,30
2017-05-27T13:41:28.015Z,30
2017-05-27T13:42:28.062Z,30
2017-05-27T13:43:28.672Z,30
2017-05-27T13:44:28.731Z,30
2017-05-27T13:45:28.665Z,30
2017-05-27T13:46:27.753Z,30
2017-05-27T13:47:28.387Z,30
2017-05-27T13:48:28.691Z,30
2017-05-27T13:49:28.441Z,30
2017-05-27T13:50:28.708Z,30
2017-05-27T13:51:28.724Z,30
2017-05-27T13:52:28.786Z,30
2017-05-27T13:53:28.792Z,30
2017-05-27T13:54:28.441Z,30
2017-05-27T13:55:28.817Z,30
2017-05-27T13:56:28.150Z,30
2017-05-27T13:57:28.472Z,30
2017-05-27T13:58:28.492Z,30
2017-05-27T13:59:28.237Z,30
2017-05-27T14:00:28.821Z,30
2017-05-27T14:01:28.565Z,30
2017-05-27T14:02:28.835Z,30
2017-05-27T14:03:28.533Z,30
2017-05-27T14:04:28.542Z,30
2017-05-27T14:05:28.294Z,30
2017-05-27T14:06:28.564Z,30
2017-05-27T14:07:27.953Z,30
2017-05-27T14:08:28.278Z,30
2017-05-27T14:09:28.645Z,30
2017-05-27T14:10:27.982Z,30
2017-05-27T14:11:28.926Z,30
2017-05-27T14:12:28.995Z,30
2017-05-27T14:13:28.635Z,30
2017-05-27T14:14:28.642Z,30
2017-05-27T14:15:28.962Z,30
2017-05-27T14:16:28.716Z,30
2017-05-27T14:17:28.679Z,30